Time;durP1;ratioP1;P1;durP2;ratioP2;P2;SDS_P1;SDS_P2;PMS_P1;PMS_P2;Temp;Humidity;BMP_temperature;BMP_pressure;BME280_temperature;BME280_humidity;BME280_pressure;Samples;Min_cycle;Max_cycle;Signal;HPM_P1;HPM_P2
2022/10/07 00:01:54;;;;;;;;;;;;;;;;;;5050028;28;19917;-57
2022/10/07 00:04:20;;;;;;;;;;;;;;;;;;5046759;28;19928;-57
2022/10/07 00:06:46;;;;;;;;;;;;;;;;;;5047451;28;20334;-57
2022/10/07 00:09:12;;;;;;;;;;;;;;;;;;5052146;28;19909;-57
2022/10/07 00:11:37;;;;;;;;;;;;;;;;;;5052483;28;19913;-57
2022/10/07 00:14:03;;;;;;;;;;;;;;;;;;5052751;28;20176;-58
2022/10/07 00:16:29;;;;;;;;;;;;;;;;;;5054201;28;20372;-57
2022/10/07 00:18:56;;;;;;;;;;;;;;;;;;5051101;28;20378;-56
2022/10/07 00:21:22;;;;;;;;;;;;;;;;;;5054027;28;19909;-57
2022/10/07 00:23:48;;;;;;;;;;;;;;;;;;5054814;28;20018;-56
2022/10/07 00:26:14;;;;;;;;;;;;;;;;;;5054750;28;19935;-57
2022/10/07 00:28:40;;;;;;;;;;;;;;;;;;5058844;28;19929;-57
2022/10/07 00:31:06;;;;;;;;;;;;;;;;;;5056416;28;19921;-57
2022/10/07 00:33:32;;;;;;;;;;;;;;;;;;5058505;28;19909;-57
2022/10/07 00:35:57;;;;;;;;;;;;;;;;;;5054555;28;20007;-58
2022/10/07 00:38:23;;;;;;;;;;;;;;;;;;5054052;28;20261;-57
2022/10/07 00:40:49;;;;;;;;;;;;;;;;;;5052588;28;19912;-57
2022/10/07 00:43:15;;;;;;;;;;;;;;;;;;5053042;28;19920;-57
2022/10/07 00:45:41;;;;;;;;;;;;;;;;;;5059684;28;19955;-56
2022/10/07 00:48:07;;;;;;;;;;;;;;;;;;5059428;28;20017;-56
2022/10/07 00:50:33;;;;;;;;;;;;;;;;;;5058290;28;19912;-57
2022/10/07 00:52:59;;;;;;;;;;;;;;;;;;5053774;28;19955;-57
2022/10/07 00:55:25;;;;;;;;;;;;;;;;;;5053819;28;19949;-57
2022/10/07 00:57:51;;;;;;;;;;;;;;;;;;5061456;28;19909;-56
2022/10/07 01:00:17;;;;;;;;;;;;;;;;;;5058775;28;19955;-57
2022/10/07 01:02:43;;;;;;;;;;;;;;;;;;5053240;28;20291;-57
2022/10/07 01:05:09;;;;;;;;;;;;;;;;;;5060591;28;19917;-57
2022/10/07 01:07:35;;;;;;;;;;;;;;;;;;5057463;28;20282;-57
2022/10/07 01:10:01;;;;;;;;;;;;;;;;;;5060515;28;19920;-56
2022/10/07 01:12:27;;;;;;;;;;;;;;;;;;5052905;28;19932;-57
2022/10/07 01:14:53;;;;;;;;;;;;;;;;;;5061206;28;19913;-57
2022/10/07 01:17:19;;;;;;;;;;;;;;;;;;5055791;28;20023;-56
2022/10/07 01:19:45;;;;;;;;;;;;;;;;;;5057273;28;19913;-57
2022/10/07 01:22:11;;;;;;;;;;;;;;;;;;5060118;28;19916;-56
2022/10/07 01:24:37;;;;;;;;;;;;;;;;;;5055361;28;19908;-56
2022/10/07 01:27:03;;;;;;;;;;;;;;;;;;5060284;28;19912;-57
2022/10/07 01:29:29;;;;;;;;;;;;;;;;;;5050966;28;20051;-57
2022/10/07 01:31:55;;;;;;;;;;;;;;;;;;5060782;28;19919;-56
2022/10/07 01:34:22;;;;;;;;;;;;;;;;;;5054246;28;19915;-56
2022/10/07 01:36:50;;;;;;;;;;;;;;;;;;5055131;28;20354;-56
2022/10/07 01:39:16;;;;;;;;;;;;;;;;;;5058754;28;19967;-56
2022/10/07 01:41:42;;;;;;;;;;;;;;;;;;5057540;28;20360;-56
2022/10/07 01:44:08;;;;;;;;;;;;;;;;;;5062407;28;20022;-56
2022/10/07 01:46:36;;;;;;;;;;;;;;;;;;5061824;28;19916;-57
2022/10/07 01:49:02;;;;;;;;;;;;;;;;;;5064609;28;20029;-56
2022/10/07 01:51:28;;;;;;;;;;;;;;;;;;5063372;28;19920;-57
2022/10/07 01:53:54;;;;;;;;;;;;;;;;;;5063686;28;19959;-57
2022/10/07 01:56:20;;;;;;;;;;;;;;;;;;5060498;28;19917;-56
2022/10/07 01:58:46;;;;;;;;;;;;;;;;;;5062519;28;19912;-56
2022/10/07 02:01:12;;;;;;;;;;;;;;;;;;5060937;28;19920;-56
2022/10/07 02:03:37;;;;;;;;;;;;;;;;;;5058848;28;19947;-56
2022/10/07 02:06:03;;;;;;;;;;;;;;;;;;5056529;28;20418;-56
2022/10/07 02:08:30;;;;;;;;;;;;;;;;;;5060047;28;19917;-56
2022/10/07 02:10:56;;;;;;;;;;;;;;;;;;5057088;28;19924;-57
2022/10/07 02:13:22;;;;;;;;;;;;;;;;;;5059742;28;20364;-56
2022/10/07 02:15:48;;;;;;;;;;;;;;;;;;5059780;28;19913;-57
2022/10/07 02:18:14;;;;;;;;;;;;;;;;;;5059008;28;19932;-56
2022/10/07 02:20:41;;;;;;;;;;;;;;;;;;5057028;28;20399;-55
2022/10/07 02:23:07;;;;;;;;;;;;;;;;;;5052928;28;20029;-56
2022/10/07 02:25:33;;;;;;;;;;;;;;;;;;5057892;28;20018;-56
2022/10/07 02:28:02;;;;;;;;;;;;;;;;;;5054197;28;19909;-56
2022/10/07 02:30:28;;;;;;;;;;;;;;;;;;5062136;28;19916;-57
2022/10/07 02:32:54;;;;;;;;;;;;;;;;;;5058539;28;19916;-57
2022/10/07 02:35:19;;;;;;;;;;;;;;;;;;5056623;28;20279;-56
2022/10/07 02:37:46;;;;;;;;;;;;;;;;;;5057349;28;19916;-56
2022/10/07 02:40:12;;;;;;;;;;;;;;;;;;5056854;28;19916;-57
2022/10/07 02:42:38;;;;;;;;;;;;;;;;;;5059180;28;19913;-57
2022/10/07 02:45:04;;;;;;;;;;;;;;;;;;5055136;28;20543;-56
2022/10/07 02:47:30;;;;;;;;;;;;;;;;;;5063016;28;19916;-57
2022/10/07 02:49:59;;;;;;;;;;;;;;;;;;5058771;28;19947;-57
2022/10/07 02:52:27;;;;;;;;;;;;;;;;;;5059907;28;19992;-57
2022/10/07 02:54:53;;;;;;;;;;;;;;;;;;5057659;28;19908;-57
2022/10/07 02:57:19;;;;;;;;;;;;;;;;;;5057430;28;19994;-57
2022/10/07 02:59:45;;;;;;;;;;;;;;;;;;5060331;28;19958;-57
2022/10/07 03:02:11;;;;;;;;;;;;;;;;;;5057530;28;19924;-56
2022/10/07 03:04:37;;;;;;;;;;;;;;;;;;5058801;28;19909;-56
2022/10/07 03:07:03;;;;;;;;;;;;;;;;;;5052030;28;20042;-56
2022/10/07 03:09:29;;;;;;;;;;;;;;;;;;5055770;28;19915;-56
2022/10/07 03:11:54;;;;;;;;;;;;;;;;;;5054248;28;19916;-56
2022/10/07 03:14:23;;;;;;;;;;;;;;;;;;5054153;28;19909;-56
2022/10/07 03:16:49;;;;;;;;;;;;;;;;;;5061532;28;19912;-57
2022/10/07 03:19:15;;;;;;;;;;;;;;;;;;5051814;28;19913;-57
2022/10/07 03:21:41;;;;;;;;;;;;;;;;;;5058664;28;19912;-57
2022/10/07 03:24:07;;;;;;;;;;;;;;;;;;5055490;28;19912;-56
2022/10/07 03:26:33;;;;;;;;;;;;;;;;;;5058617;28;20269;-57
2022/10/07 03:29:00;;;;;;;;;;;;;;;;;;5060740;28;20009;-57
2022/10/07 03:31:26;;;;;;;;;;;;;;;;;;5057331;28;20015;-56
2022/10/07 03:33:52;;;;;;;;;;;;;;;;;;5057617;28;19908;-57
2022/10/07 03:36:18;;;;;;;;;;;;;;;;;;5055906;28;20236;-57
2022/10/07 03:38:44;;;;;;;;;;;;;;;;;;5059477;28;19916;-56
2022/10/07 03:41:10;;;;;;;;;;;;;;;;;;5057878;28;19912;-57
2022/10/07 03:43:36;;;;;;;;;;;;;;;;;;5054172;28;20399;-56
2022/10/07 03:46:02;;;;;;;;;;;;;;;;;;5058416;28;19958;-56
2022/10/07 03:48:29;;;;;;;;;;;;;;;;;;5050283;28;20360;-57
2022/10/07 03:50:56;;;;;;;;;;;;;;;;;;5056394;28;19920;-57
2022/10/07 03:53:22;;;;;;;;;;;;;;;;;;5056262;28;19912;-56
2022/10/07 03:55:48;;;;;;;;;;;;;;;;;;5057266;28;20283;-56
2022/10/07 03:58:14;;;;;;;;;;;;;;;;;;5055915;28;19920;-56
2022/10/07 04:00:40;;;;;;;;;;;;;;;;;;5058714;28;19916;-56
2022/10/07 04:03:06;;;;;;;;;;;;;;;;;;5050060;28;19908;-57
2022/10/07 04:05:32;;;;;;;;;;;;;;;;;;5056992;28;20356;-56
2022/10/07 04:07:58;;;;;;;;;;;;;;;;;;5052364;28;19916;-56
2022/10/07 04:10:24;;;;;;;;;;;;;;;;;;5054782;28;19916;-57
2022/10/07 04:12:51;;;;;;;;;;;;;;;;;;5052913;28;19966;-56
2022/10/07 04:15:16;;;;;;;;;;;;;;;;;;5057181;28;19912;-56
2022/10/07 04:17:43;;;;;;;;;;;;;;;;;;5056868;28;19916;-56
2022/10/07 04:20:09;;;;;;;;;;;;;;;;;;5049974;28;19976;-57
2022/10/07 04:22:35;;;;;;;;;;;;;;;;;;5056957;28;19947;-56
2022/10/07 04:27:46;;;;;;;;;;;;;;;;;;5057254;28;19915;-56
2022/10/07 04:30:12;;;;;;;;;;;;;;;;;;5060979;28;20015;-56
2022/10/07 04:32:38;;;;;;;;;;;;;;;;;;5058300;28;19909;-57
2022/10/07 04:35:04;;;;;;;;;;;;;;;;;;5059315;28;19924;-57
2022/10/07 04:37:30;;;;;;;;;;;;;;;;;;5054538;28;19917;-56
2022/10/07 04:39:56;;;;;;;;;;;;;;;;;;5050867;28;19932;-56
2022/10/07 04:45:06;;;;;;;;;;;;;;;;;;5059302;28;19958;-57
2022/10/07 04:47:34;;;;;;;;;;;;;;;;;;5062043;28;19913;-56
2022/10/07 04:50:00;;;;;;;;;;;;;;;;;;5059473;28;19921;-56
2022/10/07 04:52:26;;;;;;;;;;;;;;;;;;5057226;28;19920;-56
2022/10/07 04:54:53;;;;;;;;;;;;;;;;;;5064200;28;20303;-56
2022/10/07 04:57:18;;;;;;;;;;;;;;;;;;5054001;28;19966;-56
2022/10/07 04:59:44;;;;;;;;;;;;;;;;;;5057506;28;20436;-58
2022/10/07 05:02:10;;;;;;;;;;;;;;;;;;5063160;28;19917;-58
2022/10/07 05:04:36;;;;;;;;;;;;;;;;;;5057107;28;20308;-56
2022/10/07 05:07:02;;;;;;;;;;;;;;;;;;5054579;28;19919;-56
2022/10/07 05:09:28;;;;;;;;;;;;;;;;;;5058725;28;20326;-58
2022/10/07 05:11:56;;;;;;;;;;;;;;;;;;5060412;28;19940;-58
2022/10/07 05:14:22;;;;;;;;;;;;;;;;;;5058656;28;19920;-57
2022/10/07 05:16:48;;;;;;;;;;;;;;;;;;5061570;28;19908;-57
2022/10/07 05:19:14;;;;;;;;;;;;;;;;;;5057294;28;19917;-56
2022/10/07 05:21:40;;;;;;;;;;;;;;;;;;5061173;28;19917;-57
2022/10/07 05:24:06;;;;;;;;;;;;;;;;;;5059762;28;19940;-57
2022/10/07 05:26:32;;;;;;;;;;;;;;;;;;5055714;28;20520;-58
2022/10/07 05:28:58;;;;;;;;;;;;;;;;;;5052013;28;20015;-58
2022/10/07 05:31:25;;;;;;;;;;;;;;;;;;5056087;28;19924;-56
2022/10/07 05:33:50;;;;;;;;;;;;;;;;;;5060272;28;19909;-57
2022/10/07 05:36:17;;;;;;;;;;;;;;;;;;5058479;28;20351;-57
2022/10/07 05:38:43;;;;;;;;;;;;;;;;;;5058185;28;19935;-57
2022/10/07 05:41:09;;;;;;;;;;;;;;;;;;5055256;28;20367;-57
2022/10/07 05:43:35;;;;;;;;;;;;;;;;;;5056431;28;19955;-57
2022/10/07 05:46:01;;;;;;;;;;;;;;;;;;5053926;28;19920;-57
2022/10/07 05:48:30;;;;;;;;;;;;;;;;;;5052000;28;19916;-55
2022/10/07 05:50:56;;;;;;;;;;;;;;;;;;5053072;28;19917;-57
2022/10/07 05:53:21;;;;;;;;;;;;;;;;;;5054758;28;20363;-56
2022/10/07 05:55:48;;;;;;;;;;;;;;;;;;5054681;28;20776;-56
2022/10/07 05:58:14;;;;;;;;;;;;;;;;;;5058459;28;19919;-56
2022/10/07 06:00:41;;;;;;;;;;;;;;;;;;5055539;28;20019;-56
2022/10/07 06:03:07;;;;;;;;;;;;;;;;;;5052406;28;19909;-56
2022/10/07 06:05:33;;;;;;;;;;;;;;;;;;5053613;28;20352;-56
2022/10/07 06:07:59;;;;;;;;;;;;;;;;;;5048114;28;19921;-56
2022/10/07 06:13:09;;;;;;;;;;;;;;;;;;5054659;28;20007;-56
2022/10/07 06:15:35;;;;;;;;;;;;;;;;;;5058513;28;20420;-56
2022/10/07 06:18:01;;;;;;;;;;;;;;;;;;5052412;28;20529;-56
2022/10/07 06:20:27;;;;;;;;;;;;;;;;;;5050188;28;19920;-55
2022/10/07 06:22:53;;;;;;;;;;;;;;;;;;5050710;28;19922;-55
2022/10/07 06:25:18;;;;;;;;;;;;;;;;;;5059160;28;19920;-56
2022/10/07 06:27:44;;;;;;;;;;;;;;;;;;5058796;28;19924;-56
2022/10/07 06:30:11;;;;;;;;;;;;;;;;;;5057033;28;19932;-55
2022/10/07 06:32:37;;;;;;;;;;;;;;;;;;5055537;28;19959;-55
2022/10/07 06:35:03;;;;;;;;;;;;;;;;;;5055480;28;19964;-55
2022/10/07 06:37:29;;;;;;;;;;;;;;;;;;5053687;28;19913;-56
2022/10/07 06:39:55;;;;;;;;;;;;;;;;;;5055501;28;20423;-56
2022/10/07 06:42:21;;;;;;;;;;;;;;;;;;5057404;28;19913;-55
2022/10/07 06:44:47;;;;;;;;;;;;;;;;;;5055163;28;19913;-56
2022/10/07 06:47:13;;;;;;;;;;;;;;;;;;5053649;28;19916;-56
2022/10/07 06:49:39;;;;;;;;;;;;;;;;;;5062593;28;19908;-56
2022/10/07 06:52:05;;;;;;;;;;;;;;;;;;5032436;28;19917;-56
2022/10/07 06:54:31;;;;;;;;;;;;;;;;;;5057058;28;19909;-56
2022/10/07 06:56:56;;;;;;;;;;;;;;;;;;5056742;28;19916;-55
2022/10/07 06:59:22;;;;;;;;;;;;;;;;;;5050655;28;19952;-56
2022/10/07 07:01:48;;;;;;;;;;;;;;;;;;5049166;28;19927;-56
2022/10/07 07:04:14;;;;;;;;;;;;;;;;;;5047517;28;19909;-57
2022/10/07 07:06:40;;;;;;;;;;;;;;;;;;5048217;28;19920;-56
2022/10/07 07:09:06;;;;;;;;;;;;;;;;;;5052245;28;19909;-57
2022/10/07 07:11:35;;;;;;;;;;;;;;;;;;5064154;28;19917;-57
2022/10/07 07:14:02;;;;;;;;;;;;;;;;;;5053415;28;19959;-57
2022/10/07 07:16:27;;;;;;;;;;;;;;;;;;5054310;28;19954;-56
2022/10/07 07:18:53;;;;;;;;;;;;;;;;;;5060683;28;19920;-57
2022/10/07 07:21:19;;;;;;;;;;;;;;;;;;5059120;28;20323;-57
2022/10/07 07:23:45;;;;;;;;;;;;;;;;;;5055615;28;19916;-57
2022/10/07 07:26:11;;;;;;;;;;;;;;;;;;5051953;28;19912;-57
2022/10/07 07:28:38;;;;;;;;;;;;;;;;;;5055751;28;19967;-57
2022/10/07 07:31:08;;;;;;;;;;;;;;;;;;5045465;28;19925;-57
2022/10/07 07:33:34;;;;;;;;;;;;;;;;;;5037374;28;20308;-57
2022/10/07 07:36:00;;;;;;;;;;;;;;;;;;5056632;28;20356;-57
2022/10/07 07:38:26;;;;;;;;;;;;;;;;;;5055732;28;19917;-57
2022/10/07 07:40:52;;;;;;;;;;;;;;;;;;5051141;28;19931;-57
2022/10/07 07:43:18;;;;;;;;;;;;;;;;;;5053135;28;20744;-57
2022/10/07 07:45:44;;;;;;;;;;;;;;;;;;5046637;28;19967;-57
2022/10/07 07:48:12;;;;;;;;;;;;;;;;;;5053152;28;19909;-57
2022/10/07 07:50:38;;;;;;;;;;;;;;;;;;5053588;28;19916;-57
2022/10/07 07:53:04;;;;;;;;;;;;;;;;;;5049628;28;19923;-57
2022/10/07 07:55:30;;;;;;;;;;;;;;;;;;5059084;28;19920;-57
2022/10/07 07:57:56;;;;;;;;;;;;;;;;;;5050438;28;19920;-57
2022/10/07 08:00:22;;;;;;;;;;;;;;;;;;5055419;28;19973;-57
2022/10/07 08:02:48;;;;;;;;;;;;;;;;;;5046862;28;20375;-57
2022/10/07 08:05:14;;;;;;;;;;;;;;;;;;5063504;28;19923;-57
2022/10/07 08:07:40;;;;;;;;;;;;;;;;;;5057099;28;19913;-57
2022/10/07 08:10:06;;;;;;;;;;;;;;;;;;5054568;28;19971;-57
2022/10/07 08:12:32;;;;;;;;;;;;;;;;;;5051912;28;20400;-57
2022/10/07 08:14:58;;;;;;;;;;;;;;;;;;5058537;28;19916;-57
2022/10/07 08:17:23;;;;;;;;;;;;;;;;;;5050123;28;19956;-57
2022/10/07 08:19:49;;;;;;;;;;;;;;;;;;5047724;28;20388;-57
2022/10/07 08:22:16;;;;;;;;;;;;;;;;;;5052812;28;19996;-57
2022/10/07 08:24:42;;;;;;;;;;;;;;;;;;5051437;28;19909;-57
2022/10/07 08:27:08;;;;;;;;;;;;;;;;;;5061071;28;19919;-57
2022/10/07 08:29:34;;;;;;;;;;;;;;;;;;5054533;28;19946;-57
2022/10/07 08:32:00;;;;;;;;;;;;;;;;;;5057738;28;19994;-58
2022/10/07 08:34:26;;;;;;;;;;;;;;;;;;5057955;28;19909;-59
2022/10/07 08:36:52;;;;;;;;;;;;;;;;;;5050514;28;19913;-58
2022/10/07 08:39:18;;;;;;;;;;;;;;;;;;5057107;28;19924;-57
2022/10/07 08:41:44;;;;;;;;;;;;;;;;;;5057627;28;20335;-58
2022/10/07 08:44:10;;;;;;;;;;;;;;;;;;5058471;28;19916;-58
2022/10/07 08:46:37;;;;;;;;;;;;;;;;;;5047346;28;19958;-58
2022/10/07 08:49:03;;;;;;;;;;;;;;;;;;4979559;28;19913;-58
2022/10/07 08:51:29;;;;;;;;;;;;;;;;;;4982477;28;20480;-57
2022/10/07 08:53:57;;;;;;;;;;;;;;;;;;4981136;28;19953;-58
2022/10/07 08:56:23;;;;;;;;;;;;;;;;;;4985970;28;19915;-58
2022/10/07 08:58:49;;;;;;;;;;;;;;;;;;4984096;28;20383;-58
2022/10/07 09:01:16;;;;;;;;;;;;;;;;;;4982066;28;19926;-56
2022/10/07 09:03:42;;;;;;;;;;;;;;;;;;4987951;28;20277;-56
2022/10/07 09:06:08;;;;;;;;;;;;;;;;;;4986646;28;19917;-56
2022/10/07 09:08:34;;;;;;;;;;;;;;;;;;4979288;28;19917;-57
2022/10/07 09:11:14;;;;;;;;;;;;;;;;;;4986900;28;20009;-57
2022/10/07 09:13:41;;;;;;;;;;;;;;;;;;4984641;28;20449;-57
2022/10/07 09:16:07;;;;;;;;;;;;;;;;;;4985996;28;19992;-57
2022/10/07 09:18:33;;;;;;;;;;;;;;;;;;4985017;28;20027;-58
2022/10/07 09:20:59;;;;;;;;;;;;;;;;;;4984489;28;19957;-58
2022/10/07 09:23:25;;;;;;;;;;;;;;;;;;4981788;28;19957;-58
2022/10/07 09:25:51;;;;;;;;;;;;;;;;;;4982186;28;20457;-58
2022/10/07 09:28:17;;;;;;;;;;;;;;;;;;4982323;28;20005;-56
2022/10/07 09:30:43;;;;;;;;;;;;;;;;;;4986928;28;19922;-56
2022/10/07 09:33:09;;;;;;;;;;;;;;;;;;4979842;28;19918;-56
2022/10/07 09:35:37;;;;;;;;;;;;;;;;;;4980337;28;19914;-56
2022/10/07 09:38:02;;;;;;;;;;;;;;;;;;4978923;28;20005;-56
2022/10/07 09:40:28;;;;;;;;;;;;;;;;;;4982316;28;20394;-56
2022/10/07 09:42:54;;;;;;;;;;;;;;;;;;4979267;28;20289;-56
2022/10/07 09:45:20;;;;;;;;;;;;;;;;;;4985318;28;19918;-55
2022/10/07 09:47:46;;;;;;;;;;;;;;;;;;4988261;28;19953;-56
2022/10/07 09:50:12;;;;;;;;;;;;;;;;;;4983955;28;20024;-56
2022/10/07 09:52:38;;;;;;;;;;;;;;;;;;4987707;28;19972;-56
2022/10/07 09:55:04;;;;;;;;;;;;;;;;;;4983551;28;19917;-56
2022/10/07 09:57:30;;;;;;;;;;;;;;;;;;4982189;28;20394;-56
2022/10/07 09:59:55;;;;;;;;;;;;;;;;;;4983168;28;19914;-56
2022/10/07 10:02:21;;;;;;;;;;;;;;;;;;4982507;28;20012;-56
2022/10/07 10:04:47;;;;;;;;;;;;;;;;;;4978598;28;19913;-56
2022/10/07 10:07:13;;;;;;;;;;;;;;;;;;4978578;28;19941;-56
2022/10/07 10:09:39;;;;;;;;;;;;;;;;;;4982008;28;20000;-55
2022/10/07 10:12:05;;;;;;;;;;;;;;;;;;4983394;28;19921;-56
2022/10/07 10:14:31;;;;;;;;;;;;;;;;;;4981362;28;19915;-56
2022/10/07 10:16:57;;;;;;;;;;;;;;;;;;4975943;28;19925;-56
2022/10/07 10:19:23;;;;;;;;;;;;;;;;;;4977827;28;19920;-56
2022/10/07 10:21:48;;;;;;;;;;;;;;;;;;4978137;28;20009;-56
2022/10/07 10:24:14;;;;;;;;;;;;;;;;;;4984231;28;19918;-56
2022/10/07 10:26:40;;;;;;;;;;;;;;;;;;4978253;28;19922;-56
2022/10/07 10:29:06;;;;;;;;;;;;;;;;;;4977946;28;20473;-56
2022/10/07 10:31:32;;;;;;;;;;;;;;;;;;4984144;28;19921;-56
2022/10/07 10:33:58;;;;;;;;;;;;;;;;;;4984973;28;19972;-56
2022/10/07 10:36:26;;;;;;;;;;;;;;;;;;4978711;28;19918;-56
2022/10/07 10:38:51;;;;;;;;;;;;;;;;;;4987650;28;20278;-56
2022/10/07 10:41:18;;;;;;;;;;;;;;;;;;4980068;28;19914;-56
2022/10/07 10:43:44;;;;;;;;;;;;;;;;;;4979553;28;19922;-56
2022/10/07 10:46:10;;;;;;;;;;;;;;;;;;4976852;28;19963;-56
2022/10/07 10:48:36;;;;;;;;;;;;;;;;;;4973364;28;19917;-56
2022/10/07 10:51:02;;;;;;;;;;;;;;;;;;4994132;28;19922;-56
2022/10/07 10:53:30;;;;;;;;;;;;;;;;;;4982912;28;20301;-56
2022/10/07 10:55:56;;;;;;;;;;;;;;;;;;4982557;28;19925;-56
2022/10/07 10:58:23;;;;;;;;;;;;;;;;;;4972928;28;20285;-56
2022/10/07 11:00:49;;;;;;;;;;;;;;;;;;4981213;28;19933;-56
2022/10/07 11:03:14;;;;;;;;;;;;;;;;;;4981677;28;19910;-56
2022/10/07 11:05:41;;;;;;;;;;;;;;;;;;4978885;28;19925;-57
2022/10/07 11:08:07;;;;;;;;;;;;;;;;;;4972652;28;19925;-56
2022/10/07 11:10:33;;;;;;;;;;;;;;;;;;4975540;28;19918;-56
2022/10/07 11:12:59;;;;;;;;;;;;;;;;;;4976265;28;20281;-56
2022/10/07 11:15:25;;;;;;;;;;;;;;;;;;4982263;28;19914;-56
2022/10/07 11:17:50;;;;;;;;;;;;;;;;;;4982396;28;19925;-56
2022/10/07 11:20:16;;;;;;;;;;;;;;;;;;4976877;28;19921;-56
2022/10/07 11:22:42;;;;;;;;;;;;;;;;;;4977239;28;20000;-57
2022/10/07 11:25:08;;;;;;;;;;;;;;;;;;4980912;28;20382;-56
2022/10/07 11:27:34;;;;;;;;;;;;;;;;;;4975029;28;19921;-56
2022/10/07 11:30:00;;;;;;;;;;;;;;;;;;4985784;28;19930;-56
2022/10/07 11:32:26;;;;;;;;;;;;;;;;;;4960132;28;19922;-56
2022/10/07 11:34:52;;;;;;;;;;;;;;;;;;4955847;28;19918;-56
2022/10/07 11:37:18;;;;;;;;;;;;;;;;;;4986694;28;20017;-56
2022/10/07 11:39:44;;;;;;;;;;;;;;;;;;4959954;28;19933;-56
2022/10/07 11:42:10;;;;;;;;;;;;;;;;;;4960309;28;19922;-56
2022/10/07 11:44:35;;;;;;;;;;;;;;;;;;4959442;28;19919;-56
2022/10/07 11:47:01;;;;;;;;;;;;;;;;;;4958400;28;20012;-56
2022/10/07 11:49:28;;;;;;;;;;;;;;;;;;4963256;28;19920;-56
2022/10/07 11:51:54;;;;;;;;;;;;;;;;;;4960899;28;20027;-56
2022/10/07 11:54:20;;;;;;;;;;;;;;;;;;4956521;28;19978;-56
2022/10/07 11:56:48;;;;;;;;;;;;;;;;;;4957719;28;19915;-56
2022/10/07 11:59:13;;;;;;;;;;;;;;;;;;4961136;28;20013;-56
2022/10/07 12:01:39;;;;;;;;;;;;;;;;;;4962944;28;20057;-56
2022/10/07 12:04:05;;;;;;;;;;;;;;;;;;4957735;28;20020;-56
2022/10/07 12:06:31;;;;;;;;;;;;;;;;;;4957683;28;19959;-56
2022/10/07 12:08:57;;;;;;;;;;;;;;;;;;4959415;28;19914;-56
2022/10/07 12:11:23;;;;;;;;;;;;;;;;;;4959077;28;20001;-57
2022/10/07 12:13:52;;;;;;;;;;;;;;;;;;4958024;28;19920;-57
2022/10/07 12:16:18;;;;;;;;;;;;;;;;;;4993124;28;19950;-56
2022/10/07 12:18:43;;;;;;;;;;;;;;;;;;4958466;28;19956;-56
2022/10/07 12:21:09;;;;;;;;;;;;;;;;;;4959184;28;19914;-56
2022/10/07 12:23:35;;;;;;;;;;;;;;;;;;4962168;28;19914;-56
2022/10/07 12:26:02;;;;;;;;;;;;;;;;;;4953194;28;19962;-56
2022/10/07 12:28:27;;;;;;;;;;;;;;;;;;4968787;28;20767;-57
2022/10/07 12:30:53;;;;;;;;;;;;;;;;;;4976195;28;19976;-56
2022/10/07 12:33:20;;;;;;;;;;;;;;;;;;4972800;28;19940;-57
2022/10/07 12:35:46;;;;;;;;;;;;;;;;;;4986099;28;19915;-57
2022/10/07 12:38:13;;;;;;;;;;;;;;;;;;4970662;28;19921;-57
2022/10/07 12:40:39;;;;;;;;;;;;;;;;;;4979807;28;19910;-57
2022/10/07 12:43:09;;;;;;;;;;;;;;;;;;4975825;28;19996;-57
2022/10/07 12:45:35;;;;;;;;;;;;;;;;;;4984819;28;20329;-57
2022/10/07 12:48:01;;;;;;;;;;;;;;;;;;4980128;28;20553;-56
2022/10/07 12:50:28;;;;;;;;;;;;;;;;;;4983859;28;20386;-57
2022/10/07 12:52:54;;;;;;;;;;;;;;;;;;4982978;28;20412;-56
2022/10/07 12:55:20;;;;;;;;;;;;;;;;;;4982706;28;20354;-57
2022/10/07 12:57:46;;;;;;;;;;;;;;;;;;4978926;28;20390;-57
2022/10/07 13:00:12;;;;;;;;;;;;;;;;;;4980309;28;20005;-57
2022/10/07 13:02:40;;;;;;;;;;;;;;;;;;4976694;28;19914;-57
2022/10/07 13:05:06;;;;;;;;;;;;;;;;;;4987677;28;20068;-57
2022/10/07 13:07:32;;;;;;;;;;;;;;;;;;4979249;28;20000;-57
2022/10/07 13:09:58;;;;;;;;;;;;;;;;;;4985092;28;20288;-57
2022/10/07 13:12:24;;;;;;;;;;;;;;;;;;4983650;28;19914;-57
2022/10/07 13:14:50;;;;;;;;;;;;;;;;;;4981958;28;19917;-57
2022/10/07 13:17:16;;;;;;;;;;;;;;;;;;4979773;28;19920;-57
2022/10/07 13:19:42;;;;;;;;;;;;;;;;;;4982582;28;19914;-57
2022/10/07 13:22:08;;;;;;;;;;;;;;;;;;4983023;28;20292;-57
2022/10/07 13:24:34;;;;;;;;;;;;;;;;;;4982706;28;20398;-57
2022/10/07 13:27:00;;;;;;;;;;;;;;;;;;4985450;28;19918;-57
2022/10/07 13:29:26;;;;;;;;;;;;;;;;;;4981413;28;19926;-57
2022/10/07 13:31:53;;;;;;;;;;;;;;;;;;4985267;28;19928;-57
2022/10/07 13:34:19;;;;;;;;;;;;;;;;;;4984497;28;19918;-57
2022/10/07 13:36:44;;;;;;;;;;;;;;;;;;4982043;28;20286;-57
2022/10/07 13:39:10;;;;;;;;;;;;;;;;;;4981559;28;19918;-57
2022/10/07 13:41:36;;;;;;;;;;;;;;;;;;4984091;28;19941;-57
2022/10/07 13:44:02;;;;;;;;;;;;;;;;;;4979588;28;19938;-56
2022/10/07 13:46:28;;;;;;;;;;;;;;;;;;4982602;28;19945;-57
2022/10/07 13:48:57;;;;;;;;;;;;;;;;;;4980735;28;19916;-56
2022/10/07 13:51:23;;;;;;;;;;;;;;;;;;4988914;28;19981;-57
2022/10/07 13:53:49;;;;;;;;;;;;;;;;;;4984512;28;19917;-57
2022/10/07 13:56:15;;;;;;;;;;;;;;;;;;4982120;28;20004;-57
2022/10/07 13:58:41;;;;;;;;;;;;;;;;;;4984034;28;19945;-57
2022/10/07 14:01:07;;;;;;;;;;;;;;;;;;4982978;28;19922;-57
2022/10/07 14:03:32;;;;;;;;;;;;;;;;;;4980673;28;19910;-57
2022/10/07 14:06:00;;;;;;;;;;;;;;;;;;4982106;28;19956;-57
2022/10/07 14:08:30;;;;;;;;;;;;;;;;;;4985144;28;19918;-57
2022/10/07 14:10:56;;;;;;;;;;;;;;;;;;4986731;28;19918;-57
2022/10/07 14:13:21;;;;;;;;;;;;;;;;;;4979880;28;19924;-57
2022/10/07 14:15:47;;;;;;;;;;;;;;;;;;4978968;28;20009;-56
2022/10/07 14:18:13;;;;;;;;;;;;;;;;;;4978233;28;19920;-57
2022/10/07 14:20:39;;;;;;;;;;;;;;;;;;4984247;28;19914;-57
2022/10/07 14:23:05;;;;;;;;;;;;;;;;;;4980848;28;20378;-57
2022/10/07 14:25:31;;;;;;;;;;;;;;;;;;4980889;28;19973;-56
2022/10/07 14:27:57;;;;;;;;;;;;;;;;;;4976827;28;19914;-57
2022/10/07 14:30:23;;;;;;;;;;;;;;;;;;4976927;28;19922;-57
2022/10/07 14:35:35;;;;;;;;;;;;;;;;;;4982249;28;19921;-57
2022/10/07 14:38:01;;;;;;;;;;;;;;;;;;4973571;28;20367;-56
2022/10/07 14:40:27;;;;;;;;;;;;;;;;;;4979323;28;19932;-56
2022/10/07 14:42:53;;;;;;;;;;;;;;;;;;4975121;28;19914;-57
2022/10/07 14:45:21;;;;;;;;;;;;;;;;;;4981436;28;20255;-57
2022/10/07 14:47:48;;;;;;;;;;;;;;;;;;4981610;28;20281;-57
2022/10/07 14:50:16;;;;;;;;;;;;;;;;;;4977172;28;19922;-57
2022/10/07 14:52:43;;;;;;;;;;;;;;;;;;4981470;28;20267;-57
2022/10/07 14:55:10;;;;;;;;;;;;;;;;;;4984353;28;19924;-57
2022/10/07 14:57:36;;;;;;;;;;;;;;;;;;4981204;28;19964;-57
2022/10/07 15:00:03;;;;;;;;;;;;;;;;;;4978567;28;19953;-57
2022/10/07 15:02:29;;;;;;;;;;;;;;;;;;4980401;28;19921;-62
2022/10/07 15:04:55;;;;;;;;;;;;;;;;;;4982864;28;19936;-62
2022/10/07 15:07:20;;;;;;;;;;;;;;;;;;4989457;28;20025;-63
2022/10/07 15:09:46;;;;;;;;;;;;;;;;;;4981006;28;19918;-62
2022/10/07 15:12:12;;;;;;;;;;;;;;;;;;4976959;28;20022;-64
2022/10/07 15:14:38;;;;;;;;;;;;;;;;;;4973117;28;19917;-65
2022/10/07 15:17:04;;;;;;;;;;;;;;;;;;4979077;28;19979;-64
2022/10/07 15:19:30;;;;;;;;;;;;;;;;;;4975747;28;19910;-64
2022/10/07 15:21:56;;;;;;;;;;;;;;;;;;4977735;28;19956;-64
2022/10/07 15:24:22;;;;;;;;;;;;;;;;;;4976628;28;19914;-64
2022/10/07 15:26:48;;;;;;;;;;;;;;;;;;4975138;28;19920;-64
2022/10/07 15:29:14;;;;;;;;;;;;;;;;;;4978028;28;19929;-64
